Time,TemperatureF,DewpointF,PressureIn,WindDirection,WindDirectionDegrees,WindSpeedMPH,WindSpeedGustMPH,Humidity,HourlyPrecipIn,Conditions,Clouds,dailyrainin,SoftwareType,DateUTC
2014-04-23 00:23:00,50.0,31.0,-100.00,ENE,75,4.0,9.0,48,0.00,,,-99.99,,2014-04-23 04:23:00,
2014-04-23 00:54:00,49.0,31.0,-100.00,East,95,3.0,6.0,50,0.00,,,-99.99,,2014-04-23 04:54:00,
2014-04-23 01:23:00,47.0,31.0,-100.00,SE,125,0.0,4.0,53,0.00,,,-99.99,,2014-04-23 05:23:00,
2014-04-23 01:52:00,45.0,32.0,-100.00,South,180,0.0,2.0,60,0.00,,,-99.99,,2014-04-23 05:52:00,
2014-04-23 02:22:00,45.0,33.0,-100.00,East,95,0.0,6.0,63,0.00,,,-99.99,,2014-04-23 06:22:00,
2014-04-23 02:53:00,44.0,33.0,-100.00,East,95,2.0,6.0,65,0.00,,,-99.99,,2014-04-23 06:53:00,
2014-04-23 03:22:00,46.0,32.0,-100.00,ENE,70,3.0,6.0,58,0.00,,,-99.99,,2014-04-23 07:22:00,
2014-04-23 03:52:00,46.0,32.0,-100.00,ENE,65,3.0,8.0,57,0.00,,,-99.99,,2014-04-23 07:52:00,
2014-04-23 04:22:00,45.0,32.0,-100.00,ENE,70,2.0,9.0,59,0.00,,,-99.99,,2014-04-23 08:22:00,
2014-04-23 04:52:00,44.0,32.0,-100.00,ENE,65,2.0,7.0,60,0.00,,,-99.99,,2014-04-23 08:52:00,
2014-04-23 05:22:00,44.0,32.0,-100.00,East,95,3.0,6.0,62,0.00,,,-99.99,,2014-04-23 09:22:00,
2014-04-23 05:54:00,44.0,32.0,-100.00,East,90,5.0,11.0,62,0.00,,,-99.99,,2014-04-23 09:54:00,
2014-04-23 06:23:00,43.0,31.0,-100.00,East,80,2.0,12.0,63,0.00,,,-99.99,,2014-04-23 10:23:00,
2014-04-23 06:53:00,42.0,31.0,-100.00,East,85,3.0,6.0,64,0.00,,,-99.99,,2014-04-23 10:53:00,
2014-04-23 07:23:00,42.0,30.0,-100.00,East,90,7.0,10.0,63,0.00,,,-99.99,,2014-04-23 11:23:00,
2014-04-23 07:52:00,42.0,30.0,-100.00,ENE,75,6.0,10.0,62,0.00,,,-99.99,,2014-04-23 11:52:00,
2014-04-23 08:22:00,43.0,30.0,-100.00,ESE,120,4.0,9.0,59,0.00,,,-99.99,,2014-04-23 12:22:00,
2014-04-23 08:52:00,44.0,30.0,-100.00,East,85,4.0,9.0,57,0.00,,,-99.99,,2014-04-23 12:52:00,
2014-04-23 09:22:00,45.0,29.0,-100.00,East,80,6.0,9.0,54,0.00,,,-99.99,,2014-04-23 13:22:00,
2014-04-23 09:52:00,45.0,29.0,-100.00,ESE,120,4.0,11.0,53,0.55,,,-99.99,,2014-04-23 13:52:00,
2014-04-23 10:22:00,46.0,29.0,-100.00,SE,135,4.0,8.0,51,0.00,,,-99.99,,2014-04-23 14:22:00,
2014-04-23 10:52:00,47.0,29.0,-100.00,ENE,75,6.0,11.0,48,0.00,,,-99.99,,2014-04-23 14:52:00,
2014-04-23 11:22:00,49.0,29.0,-100.00,ENE,60,4.0,11.0,46,0.00,,,-99.99,,2014-04-23 15:22:00,
2014-04-23 11:53:00,50.0,29.0,-100.00,NE,50,2.0,12.0,43,0.00,,,-99.99,,2014-04-23 15:53:00,
2014-04-23 12:23:00,51.0,28.0,-100.00,East,80,5.0,10.0,41,0.00,,,-99.99,,2014-04-23 16:23:00,
2014-04-23 12:53:00,52.0,28.0,-100.00,NE,35,3.0,10.0,39,0.00,,,-99.99,,2014-04-23 16:53:00,
2014-04-23 13:24:00,53.0,29.0,-100.00,SE,125,5.0,9.0,38,0.00,,,-99.99,,2014-04-23 17:24:00,
2014-04-23 13:52:00,55.0,29.0,-100.00,NE,40,6.0,13.0,36,0.00,,,-99.99,,2014-04-23 17:52:00,
2014-04-23 14:22:00,57.0,30.0,-100.00,East,90,2.0,7.0,35,0.00,,,-99.99,,2014-04-23 18:22:00,
2014-04-23 14:52:00,58.0,31.0,-100.00,SE,130,4.0,12.0,35,0.00,,,-99.99,,2014-04-23 18:52:00,
2014-04-23 15:22:00,58.0,30.0,-100.00,ENE,65,2.0,9.0,34,0.00,,,-99.99,,2014-04-23 19:22:00,
2014-04-23 15:56:00,59.0,30.0,-100.00,East,85,4.0,10.0,33,0.00,,,-99.99,,2014-04-23 19:56:00,
2014-04-23 16:22:00,61.0,32.0,-100.00,South,175,2.0,7.0,33,0.00,,,-99.99,,2014-04-23 20:22:00,
2014-04-23 16:52:00,60.0,31.0,-100.00,East,100,4.0,12.0,33,0.00,,,-99.99,,2014-04-23 20:52:00,
2014-04-23 17:22:00,61.0,32.0,-100.00,East,80,6.0,11.0,33,0.00,,,-99.99,,2014-04-23 21:22:00,
2014-04-23 17:53:00,62.0,32.0,-100.00,NE,45,1.0,11.0,32,0.00,,,-99.99,,2014-04-23 21:53:00,
2014-04-23 18:23:00,62.0,32.0,-100.00,ENE,65,3.0,7.0,32,0.00,,,-99.99,,2014-04-23 22:23:00,
2014-04-23 18:54:00,61.0,33.0,-100.00,East,80,2.0,7.0,33,0.00,,,-99.99,,2014-04-23 22:54:00,
2014-04-23 19:22:00,61.0,33.0,-100.00,ESE,110,1.0,4.0,34,0.00,,,-99.99,,2014-04-23 23:22:00,
2014-04-23 19:52:00,60.0,32.0,-100.00,SSE,155,2.0,4.0,35,0.00,,,-99.99,,2014-04-23 23:52:00,
2014-04-23 20:22:00,59.0,33.0,-100.00,East,90,2.0,6.0,36,0.00,,,-99.99,,2014-04-24 00:22:00,
2014-04-23 20:52:00,57.0,33.0,-100.00,SSW,200,1.0,4.0,40,0.00,,,-99.99,,2014-04-24 00:52:00,
2014-04-23 21:22:00,54.0,35.0,-100.00,SE,135,0.0,2.0,49,0.00,,,-99.99,,2014-04-24 01:22:00,
2014-04-23 21:52:00,51.0,36.0,-100.00,SSW,200,1.0,3.0,56,0.00,,,-99.99,,2014-04-24 01:52:00,
2014-04-23 22:22:00,50.0,36.0,-100.00,NW,325,0.0,2.0,58,0.00,,,-99.99,,2014-04-24 02:22:00,
2014-04-23 23:22:00,48.0,37.0,-100.00,SSW,210,0.0,4.0,65,0.00,,,-99.99,,2014-04-24 03:22:00,
2014-04-23 23:54:00,47.0,37.0,-100.00,South,180,0.0,0.0,67,0.00,,,-99.99,,2014-04-24 03:54:00,